sensor_id;sensor_type;location;lat;lon;timestamp;P1;durP1;ratioP1;P2;durP2;ratioP2
19621;SDS011;9958;33.196;-97.114;2022-09-09T00:01:16;5.75;;;2.80;;
19621;SDS011;9958;33.196;-97.114;2022-09-09T00:03:58;3.88;;;3.08;;
19621;SDS011;9958;33.196;-97.114;2022-09-09T00:06:31;3.20;;;2.90;;
19621;SDS011;9958;33.196;-97.114;2022-09-09T00:09:01;3.30;;;2.97;;
19621;SDS011;9958;33.196;-97.114;2022-09-09T00:11:39;3.28;;;2.97;;
19621;SDS011;9958;33.196;-97.114;2022-09-09T00:14:12;3.08;;;2.80;;
19621;SDS011;9958;33.196;-97.114;2022-09-09T00:16:47;6.40;;;3.30;;
19621;SDS011;9958;33.196;-97.114;2022-09-09T00:19:22;3.00;;;2.70;;
19621;SDS011;9958;33.196;-97.114;2022-09-09T00:22:01;3.40;;;3.10;;
19621;SDS011;9958;33.196;-97.114;2022-09-09T00:24:41;5.47;;;3.08;;
19621;SDS011;9958;33.196;-97.114;2022-09-09T00:27:14;3.17;;;2.90;;
19621;SDS011;9958;33.196;-97.114;2022-09-09T00:29:47;3.13;;;2.83;;
19621;SDS011;9958;33.196;-97.114;2022-09-09T00:32:20;3.20;;;2.90;;
19621;SDS011;9958;33.196;-97.114;2022-09-09T00:34:49;3.65;;;3.10;;
19621;SDS011;9958;33.196;-97.114;2022-09-09T00:37:21;4.32;;;2.85;;
19621;SDS011;9958;33.196;-97.114;2022-09-09T00:39:52;3.35;;;3.05;;
19621;SDS011;9958;33.196;-97.114;2022-09-09T00:42:30;2.78;;;2.55;;
19621;SDS011;9958;33.196;-97.114;2022-09-09T00:45:11;4.18;;;2.83;;
19621;SDS011;9958;33.196;-97.114;2022-09-09T00:47:54;4.32;;;2.97;;
19621;SDS011;9958;33.196;-97.114;2022-09-09T00:50:28;3.88;;;2.78;;
19621;SDS011;9958;33.196;-97.114;2022-09-09T00:53:08;3.25;;;2.95;;
19621;SDS011;9958;33.196;-97.114;2022-09-09T00:55:57;4.05;;;2.97;;
19621;SDS011;9958;33.196;-97.114;2022-09-09T00:58:35;3.00;;;2.67;;
19621;SDS011;9958;33.196;-97.114;2022-09-09T01:01:04;3.20;;;2.90;;
19621;SDS011;9958;33.196;-97.114;2022-09-09T01:03:35;3.88;;;3.10;;
19621;SDS011;9958;33.196;-97.114;2022-09-09T01:06:15;4.80;;;3.33;;
19621;SDS011;9958;33.196;-97.114;2022-09-09T01:08:50;4.43;;;2.80;;
19621;SDS011;9958;33.196;-97.114;2022-09-09T01:11:25;3.75;;;2.83;;
19621;SDS011;9958;33.196;-97.114;2022-09-09T01:13:58;3.08;;;2.63;;
19621;SDS011;9958;33.196;-97.114;2022-09-09T01:16:37;3.20;;;2.67;;
19621;SDS011;9958;33.196;-97.114;2022-09-09T01:19:06;3.60;;;2.78;;
19621;SDS011;9958;33.196;-97.114;2022-09-09T01:21:41;3.03;;;2.60;;
19621;SDS011;9958;33.196;-97.114;2022-09-09T01:24:20;3.97;;;2.83;;
19621;SDS011;9958;33.196;-97.114;2022-09-09T01:26:56;4.10;;;3.33;;
19621;SDS011;9958;33.196;-97.114;2022-09-09T01:29:27;4.00;;;3.22;;
19621;SDS011;9958;33.196;-97.114;2022-09-09T01:31:56;4.57;;;3.00;;
19621;SDS011;9958;33.196;-97.114;2022-09-09T01:34:25;2.70;;;2.50;;
19621;SDS011;9958;33.196;-97.114;2022-09-09T01:36:57;5.45;;;2.72;;
19621;SDS011;9958;33.196;-97.114;2022-09-09T01:39:30;3.15;;;2.85;;
19621;SDS011;9958;33.196;-97.114;2022-09-09T01:42:00;3.03;;;2.78;;
19621;SDS011;9958;33.196;-97.114;2022-09-09T01:44:29;4.32;;;2.80;;
19621;SDS011;9958;33.196;-97.114;2022-09-09T01:46:58;3.30;;;3.00;;
19621;SDS011;9958;33.196;-97.114;2022-09-09T01:49:27;3.63;;;2.95;;
19621;SDS011;9958;33.196;-97.114;2022-09-09T01:51:55;3.60;;;2.97;;
19621;SDS011;9958;33.196;-97.114;2022-09-09T01:54:24;4.35;;;2.83;;
19621;SDS011;9958;33.196;-97.114;2022-09-09T01:57:00;3.08;;;2.78;;
19621;SDS011;9958;33.196;-97.114;2022-09-09T01:59:42;2.70;;;2.50;;
19621;SDS011;9958;33.196;-97.114;2022-09-09T02:02:18;4.25;;;2.65;;
19621;SDS011;9958;33.196;-97.114;2022-09-09T02:04:52;3.45;;;2.97;;
19621;SDS011;9958;33.196;-97.114;2022-09-09T02:07:31;4.07;;;2.72;;
19621;SDS011;9958;33.196;-97.114;2022-09-09T02:10:09;4.75;;;3.00;;
19621;SDS011;9958;33.196;-97.114;2022-09-09T02:12:42;5.00;;;3.13;;
19621;SDS011;9958;33.196;-97.114;2022-09-09T02:15:17;5.03;;;2.95;;
19621;SDS011;9958;33.196;-97.114;2022-09-09T02:17:49;4.05;;;2.55;;
19621;SDS011;9958;33.196;-97.114;2022-09-09T02:20:19;3.33;;;2.63;;
19621;SDS011;9958;33.196;-97.114;2022-09-09T02:22:50;3.47;;;2.70;;
19621;SDS011;9958;33.196;-97.114;2022-09-09T02:25:21;3.35;;;2.85;;
19621;SDS011;9958;33.196;-97.114;2022-09-09T02:27:53;2.92;;;2.65;;
19621;SDS011;9958;33.196;-97.114;2022-09-09T02:30:23;3.33;;;2.70;;
19621;SDS011;9958;33.196;-97.114;2022-09-09T02:32:52;3.15;;;2.30;;
19621;SDS011;9958;33.196;-97.114;2022-09-09T02:35:24;3.05;;;2.25;;
19621;SDS011;9958;33.196;-97.114;2022-09-09T02:37:54;4.50;;;2.38;;
19621;SDS011;9958;33.196;-97.114;2022-09-09T02:40:27;3.78;;;2.90;;
19621;SDS011;9958;33.196;-97.114;2022-09-09T02:42:56;4.25;;;2.88;;
19621;SDS011;9958;33.196;-97.114;2022-09-09T02:45:27;3.60;;;2.75;;
19621;SDS011;9958;33.196;-97.114;2022-09-09T02:48:02;3.83;;;3.03;;
19621;SDS011;9958;33.196;-97.114;2022-09-09T02:50:38;4.88;;;2.75;;
19621;SDS011;9958;33.196;-97.114;2022-09-09T02:53:16;2.88;;;2.50;;
19621;SDS011;9958;33.196;-97.114;2022-09-09T02:55:46;4.15;;;2.25;;
19621;SDS011;9958;33.196;-97.114;2022-09-09T02:58:18;4.00;;;2.63;;
19621;SDS011;9958;33.196;-97.114;2022-09-09T03:00:48;2.95;;;2.55;;
19621;SDS011;9958;33.196;-97.114;2022-09-09T03:03:18;2.50;;;2.30;;
19621;SDS011;9958;33.196;-97.114;2022-09-09T03:05:47;4.50;;;3.22;;
19621;SDS011;9958;33.196;-97.114;2022-09-09T03:08:16;2.50;;;2.30;;
19621;SDS011;9958;33.196;-97.114;2022-09-09T03:10:44;5.30;;;2.70;;
19621;SDS011;9958;33.196;-97.114;2022-09-09T03:13:12;4.40;;;2.67;;
19621;SDS011;9958;33.196;-97.114;2022-09-09T03:15:42;4.32;;;2.45;;
19621;SDS011;9958;33.196;-97.114;2022-09-09T03:18:10;4.13;;;2.60;;
19621;SDS011;9958;33.196;-97.114;2022-09-09T03:20:39;5.32;;;3.17;;
19621;SDS011;9958;33.196;-97.114;2022-09-09T03:23:08;3.53;;;2.75;;
19621;SDS011;9958;33.196;-97.114;2022-09-09T03:25:39;3.25;;;2.75;;
19621;SDS011;9958;33.196;-97.114;2022-09-09T03:28:13;2.70;;;2.50;;
19621;SDS011;9958;33.196;-97.114;2022-09-09T03:30:42;3.17;;;2.80;;
19621;SDS011;9958;33.196;-97.114;2022-09-09T03:33:11;2.83;;;2.63;;
19621;SDS011;9958;33.196;-97.114;2022-09-09T03:35:44;2.75;;;2.55;;
19621;SDS011;9958;33.196;-97.114;2022-09-09T03:38:14;3.25;;;2.40;;
19621;SDS011;9958;33.196;-97.114;2022-09-09T03:40:48;3.40;;;2.53;;
19621;SDS011;9958;33.196;-97.114;2022-09-09T03:43:17;4.78;;;3.10;;
19621;SDS011;9958;33.196;-97.114;2022-09-09T03:45:48;2.88;;;2.60;;
19621;SDS011;9958;33.196;-97.114;2022-09-09T03:48:16;3.40;;;2.75;;
19621;SDS011;9958;33.196;-97.114;2022-09-09T03:50:46;3.22;;;2.88;;
19621;SDS011;9958;33.196;-97.114;2022-09-09T03:53:15;3.40;;;3.00;;
19621;SDS011;9958;33.196;-97.114;2022-09-09T03:55:44;3.42;;;2.60;;
19621;SDS011;9958;33.196;-97.114;2022-09-09T03:58:13;6.40;;;3.03;;
19621;SDS011;9958;33.196;-97.114;2022-09-09T04:00:41;3.33;;;3.03;;
19621;SDS011;9958;33.196;-97.114;2022-09-09T04:03:12;4.50;;;2.80;;
19621;SDS011;9958;33.196;-97.114;2022-09-09T04:05:41;3.58;;;2.50;;
19621;SDS011;9958;33.196;-97.114;2022-09-09T04:08:09;4.10;;;2.58;;
19621;SDS011;9958;33.196;-97.114;2022-09-09T04:10:37;3.75;;;3.15;;
19621;SDS011;9958;33.196;-97.114;2022-09-09T04:13:05;3.38;;;3.05;;
19621;SDS011;9958;33.196;-97.114;2022-09-09T04:15:34;3.28;;;2.97;;
19621;SDS011;9958;33.196;-97.114;2022-09-09T04:18:02;3.00;;;2.70;;
19621;SDS011;9958;33.196;-97.114;2022-09-09T04:20:32;4.15;;;2.80;;
19621;SDS011;9958;33.196;-97.114;2022-09-09T04:23:00;4.30;;;3.00;;
19621;SDS011;9958;33.196;-97.114;2022-09-09T04:25:29;3.30;;;3.00;;
19621;SDS011;9958;33.196;-97.114;2022-09-09T04:27:57;3.35;;;2.85;;
19621;SDS011;9958;33.196;-97.114;2022-09-09T04:30:25;4.57;;;2.95;;
19621;SDS011;9958;33.196;-97.114;2022-09-09T04:32:54;4.05;;;3.05;;
19621;SDS011;9958;33.196;-97.114;2022-09-09T04:35:23;3.95;;;2.80;;
19621;SDS011;9958;33.196;-97.114;2022-09-09T04:37:54;3.17;;;2.65;;
19621;SDS011;9958;33.196;-97.114;2022-09-09T04:40:22;3.33;;;2.60;;
19621;SDS011;9958;33.196;-97.114;2022-09-09T04:42:50;3.67;;;3.20;;
19621;SDS011;9958;33.196;-97.114;2022-09-09T04:45:19;4.85;;;3.15;;
19621;SDS011;9958;33.196;-97.114;2022-09-09T04:47:47;4.72;;;2.88;;
19621;SDS011;9958;33.196;-97.114;2022-09-09T04:50:15;5.47;;;2.90;;
19621;SDS011;9958;33.196;-97.114;2022-09-09T04:52:44;3.17;;;2.88;;
19621;SDS011;9958;33.196;-97.114;2022-09-09T04:55:14;3.28;;;2.70;;
19621;SDS011;9958;33.196;-97.114;2022-09-09T04:57:42;4.72;;;3.20;;
19621;SDS011;9958;33.196;-97.114;2022-09-09T05:00:10;5.13;;;3.25;;
19621;SDS011;9958;33.196;-97.114;2022-09-09T05:02:39;3.30;;;3.00;;
19621;SDS011;9958;33.196;-97.114;2022-09-09T05:05:08;3.20;;;2.90;;
19621;SDS011;9958;33.196;-97.114;2022-09-09T05:07:36;3.65;;;2.92;;
19621;SDS011;9958;33.196;-97.114;2022-09-09T05:10:05;5.07;;;3.22;;
19621;SDS011;9958;33.196;-97.114;2022-09-09T05:12:35;4.55;;;3.13;;
19621;SDS011;9958;33.196;-97.114;2022-09-09T05:15:03;3.58;;;3.28;;
19621;SDS011;9958;33.196;-97.114;2022-09-09T05:17:32;3.40;;;2.90;;
19621;SDS011;9958;33.196;-97.114;2022-09-09T05:20:01;3.35;;;3.05;;
19621;SDS011;9958;33.196;-97.114;2022-09-09T05:22:30;3.58;;;3.03;;
19621;SDS011;9958;33.196;-97.114;2022-09-09T05:24:58;3.53;;;2.92;;
19621;SDS011;9958;33.196;-97.114;2022-09-09T05:27:27;4.05;;;3.30;;
19621;SDS011;9958;33.196;-97.114;2022-09-09T05:29:58;4.15;;;3.10;;
19621;SDS011;9958;33.196;-97.114;2022-09-09T05:32:26;4.38;;;3.20;;
19621;SDS011;9958;33.196;-97.114;2022-09-09T05:34:57;3.15;;;2.88;;
19621;SDS011;9958;33.196;-97.114;2022-09-09T05:37:26;4.50;;;3.13;;
19621;SDS011;9958;33.196;-97.114;2022-09-09T05:39:55;3.25;;;2.85;;
19621;SDS011;9958;33.196;-97.114;2022-09-09T05:42:24;3.58;;;2.70;;
19621;SDS011;9958;33.196;-97.114;2022-09-09T05:44:57;3.33;;;3.03;;
19621;SDS011;9958;33.196;-97.114;2022-09-09T05:47:26;4.00;;;3.70;;
19621;SDS011;9958;33.196;-97.114;2022-09-09T05:49:54;3.88;;;3.20;;
19621;SDS011;9958;33.196;-97.114;2022-09-09T05:52:23;3.60;;;3.08;;
19621;SDS011;9958;33.196;-97.114;2022-09-09T05:54:51;3.65;;;3.00;;
19621;SDS011;9958;33.196;-97.114;2022-09-09T05:57:20;3.88;;;3.03;;
19621;SDS011;9958;33.196;-97.114;2022-09-09T05:59:48;4.53;;;3.63;;
19621;SDS011;9958;33.196;-97.114;2022-09-09T06:02:18;4.63;;;3.63;;
19621;SDS011;9958;33.196;-97.114;2022-09-09T06:04:46;3.65;;;3.22;;
19621;SDS011;9958;33.196;-97.114;2022-09-09T06:07:14;6.35;;;3.70;;
19621;SDS011;9958;33.196;-97.114;2022-09-09T06:09:43;3.50;;;3.20;;
19621;SDS011;9958;33.196;-97.114;2022-09-09T06:12:11;3.72;;;3.10;;
19621;SDS011;9958;33.196;-97.114;2022-09-09T06:14:40;3.88;;;3.13;;
19621;SDS011;9958;33.196;-97.114;2022-09-09T06:17:08;4.43;;;3.67;;
19621;SDS011;9958;33.196;-97.114;2022-09-09T06:19:38;4.20;;;3.30;;
19621;SDS011;9958;33.196;-97.114;2022-09-09T06:22:06;3.50;;;3.17;;
19621;SDS011;9958;33.196;-97.114;2022-09-09T06:24:35;4.63;;;3.25;;
19621;SDS011;9958;33.196;-97.114;2022-09-09T06:27:03;3.80;;;3.50;;
19621;SDS011;9958;33.196;-97.114;2022-09-09T06:29:32;3.67;;;3.15;;
19621;SDS011;9958;33.196;-97.114;2022-09-09T06:32:01;6.32;;;3.63;;
19621;SDS011;9958;33.196;-97.114;2022-09-09T06:34:29;4.88;;;3.67;;
19621;SDS011;9958;33.196;-97.114;2022-09-09T06:36:59;3.67;;;3.30;;
19621;SDS011;9958;33.196;-97.114;2022-09-09T06:39:27;4.78;;;3.75;;
19621;SDS011;9958;33.196;-97.114;2022-09-09T06:41:56;6.15;;;3.60;;
19621;SDS011;9958;33.196;-97.114;2022-09-09T06:44:24;7.22;;;3.67;;
19621;SDS011;9958;33.196;-97.114;2022-09-09T06:46:53;4.72;;;3.80;;
19621;SDS011;9958;33.196;-97.114;2022-09-09T06:49:21;5.93;;;4.30;;
19621;SDS011;9958;33.196;-97.114;2022-09-09T06:51:49;5.15;;;3.78;;
19621;SDS011;9958;33.196;-97.114;2022-09-09T06:54:19;5.65;;;3.90;;
19621;SDS011;9958;33.196;-97.114;2022-09-09T06:56:48;4.15;;;3.75;;
19621;SDS011;9958;33.196;-97.114;2022-09-09T06:59:16;4.97;;;4.10;;
19621;SDS011;9958;33.196;-97.114;2022-09-09T07:01:44;4.05;;;3.53;;
19621;SDS011;9958;33.196;-97.114;2022-09-09T07:04:13;7.68;;;3.90;;
19621;SDS011;9958;33.196;-97.114;2022-09-09T07:06:42;9.38;;;4.28;;
19621;SDS011;9958;33.196;-97.114;2022-09-09T07:09:12;4.10;;;3.53;;
19621;SDS011;9958;33.196;-97.114;2022-09-09T07:11:43;6.88;;;4.05;;
19621;SDS011;9958;33.196;-97.114;2022-09-09T07:14:13;5.55;;;3.70;;
19621;SDS011;9958;33.196;-97.114;2022-09-09T07:16:42;5.90;;;3.63;;
19621;SDS011;9958;33.196;-97.114;2022-09-09T07:19:11;4.47;;;4.00;;
19621;SDS011;9958;33.196;-97.114;2022-09-09T07:21:40;5.45;;;4.15;;
19621;SDS011;9958;33.196;-97.114;2022-09-09T07:24:09;4.88;;;3.70;;
19621;SDS011;9958;33.196;-97.114;2022-09-09T07:26:38;6.00;;;3.58;;
19621;SDS011;9958;33.196;-97.114;2022-09-09T07:29:08;6.40;;;4.03;;
19621;SDS011;9958;33.196;-97.114;2022-09-09T07:31:39;7.82;;;4.20;;
19621;SDS011;9958;33.196;-97.114;2022-09-09T07:34:07;5.43;;;4.18;;
19621;SDS011;9958;33.196;-97.114;2022-09-09T07:36:36;4.32;;;3.85;;
19621;SDS011;9958;33.196;-97.114;2022-09-09T07:39:07;5.55;;;3.42;;
19621;SDS011;9958;33.196;-97.114;2022-09-09T07:41:39;8.00;;;4.45;;
19621;SDS011;9958;33.196;-97.114;2022-09-09T07:44:11;8.38;;;4.68;;
19621;SDS011;9958;33.196;-97.114;2022-09-09T07:46:40;5.13;;;4.00;;
19621;SDS011;9958;33.196;-97.114;2022-09-09T07:49:10;6.35;;;4.07;;
19621;SDS011;9958;33.196;-97.114;2022-09-09T07:51:39;9.38;;;4.20;;
19621;SDS011;9958;33.196;-97.114;2022-09-09T07:54:09;5.97;;;4.40;;
19621;SDS011;9958;33.196;-97.114;2022-09-09T07:56:39;5.07;;;4.18;;
19621;SDS011;9958;33.196;-97.114;2022-09-09T07:59:10;5.80;;;3.92;;
19621;SDS011;9958;33.196;-97.114;2022-09-09T08:01:39;7.00;;;4.57;;
19621;SDS011;9958;33.196;-97.114;2022-09-09T08:04:10;5.03;;;4.32;;
19621;SDS011;9958;33.196;-97.114;2022-09-09T08:06:41;7.05;;;4.07;;
19621;SDS011;9958;33.196;-97.114;2022-09-09T08:09:12;5.35;;;4.13;;
19621;SDS011;9958;33.196;-97.114;2022-09-09T08:11:40;6.38;;;4.15;;
19621;SDS011;9958;33.196;-97.114;2022-09-09T08:14:11;7.07;;;4.13;;
19621;SDS011;9958;33.196;-97.114;2022-09-09T08:16:41;4.90;;;4.03;;
19621;SDS011;9958;33.196;-97.114;2022-09-09T08:19:11;5.13;;;3.88;;
19621;SDS011;9958;33.196;-97.114;2022-09-09T08:21:41;5.68;;;4.15;;
19621;SDS011;9958;33.196;-97.114;2022-09-09T08:24:10;6.47;;;3.83;;
19621;SDS011;9958;33.196;-97.114;2022-09-09T08:26:40;4.85;;;3.75;;
19621;SDS011;9958;33.196;-97.114;2022-09-09T08:29:11;5.75;;;4.28;;
19621;SDS011;9958;33.196;-97.114;2022-09-09T08:31:41;6.32;;;4.10;;
19621;SDS011;9958;33.196;-97.114;2022-09-09T08:34:10;4.65;;;3.63;;
19621;SDS011;9958;33.196;-97.114;2022-09-09T08:36:39;5.22;;;4.50;;
19621;SDS011;9958;33.196;-97.114;2022-09-09T08:39:09;6.57;;;4.20;;
19621;SDS011;9958;33.196;-97.114;2022-09-09T08:41:41;4.63;;;4.07;;
19621;SDS011;9958;33.196;-97.114;2022-09-09T08:44:27;5.78;;;4.32;;
19621;SDS011;9958;33.196;-97.114;2022-09-09T08:47:04;4.88;;;4.05;;
19621;SDS011;9958;33.196;-97.114;2022-09-09T08:49:47;4.60;;;4.10;;
19621;SDS011;9958;33.196;-97.114;2022-09-09T08:52:27;7.63;;;4.00;;
19621;SDS011;9958;33.196;-97.114;2022-09-09T08:54:58;6.25;;;4.18;;
19621;SDS011;9958;33.196;-97.114;2022-09-09T08:57:31;6.72;;;4.65;;
19621;SDS011;9958;33.196;-97.114;2022-09-09T09:00:02;5.90;;;4.35;;
19621;SDS011;9958;33.196;-97.114;2022-09-09T09:02:32;4.75;;;4.28;;
19621;SDS011;9958;33.196;-97.114;2022-09-09T09:05:09;5.35;;;4.50;;
19621;SDS011;9958;33.196;-97.114;2022-09-09T09:07:48;7.07;;;4.15;;
19621;SDS011;9958;33.196;-97.114;2022-09-09T09:10:30;5.10;;;4.38;;
19621;SDS011;9958;33.196;-97.114;2022-09-09T09:13:12;5.65;;;4.28;;
19621;SDS011;9958;33.196;-97.114;2022-09-09T09:15:44;5.07;;;4.40;;
19621;SDS011;9958;33.196;-97.114;2022-09-09T09:18:16;6.85;;;4.60;;
19621;SDS011;9958;33.196;-97.114;2022-09-09T09:20:48;5.55;;;4.40;;
19621;SDS011;9958;33.196;-97.114;2022-09-09T09:23:25;6.35;;;4.32;;
19621;SDS011;9958;33.196;-97.114;2022-09-09T09:26:00;6.70;;;5.28;;
19621;SDS011;9958;33.196;-97.114;2022-09-09T09:28:30;5.80;;;4.70;;
19621;SDS011;9958;33.196;-97.114;2022-09-09T09:31:01;4.70;;;3.97;;
19621;SDS011;9958;33.196;-97.114;2022-09-09T09:33:33;5.15;;;4.03;;
19621;SDS011;9958;33.196;-97.114;2022-09-09T09:36:13;6.10;;;4.35;;
19621;SDS011;9958;33.196;-97.114;2022-09-09T09:38:51;5.60;;;4.47;;
19621;SDS011;9958;33.196;-97.114;2022-09-09T09:41:32;4.30;;;3.90;;
19621;SDS011;9958;33.196;-97.114;2022-09-09T09:44:02;4.78;;;4.28;;
19621;SDS011;9958;33.196;-97.114;2022-09-09T09:46:34;5.07;;;3.67;;
19621;SDS011;9958;33.196;-97.114;2022-09-09T09:49:03;6.18;;;4.63;;
19621;SDS011;9958;33.196;-97.114;2022-09-09T09:51:33;4.18;;;3.78;;
19621;SDS011;9958;33.196;-97.114;2022-09-09T09:54:09;7.22;;;3.90;;
19621;SDS011;9958;33.196;-97.114;2022-09-09T09:56:45;5.47;;;4.25;;
19621;SDS011;9958;33.196;-97.114;2022-09-09T09:59:20;6.07;;;4.25;;
19621;SDS011;9958;33.196;-97.114;2022-09-09T10:01:51;5.00;;;4.10;;
19621;SDS011;9958;33.196;-97.114;2022-09-09T10:04:20;4.53;;;4.07;;
19621;SDS011;9958;33.196;-97.114;2022-09-09T10:06:50;4.80;;;4.00;;
19621;SDS011;9958;33.196;-97.114;2022-09-09T10:09:22;6.15;;;4.50;;
19621;SDS011;9958;33.196;-97.114;2022-09-09T10:11:54;4.32;;;3.70;;
19621;SDS011;9958;33.196;-97.114;2022-09-09T10:14:31;4.30;;;3.90;;
19621;SDS011;9958;33.196;-97.114;2022-09-09T10:17:09;5.40;;;4.30;;
19621;SDS011;9958;33.196;-97.114;2022-09-09T10:19:48;5.38;;;4.30;;
19621;SDS011;9958;33.196;-97.114;2022-09-09T10:22:28;4.60;;;4.20;;
19621;SDS011;9958;33.196;-97.114;2022-09-09T10:28:09;4.90;;;4.40;;
19621;SDS011;9958;33.196;-97.114;2022-09-09T10:30:54;4.38;;;3.97;;
19621;SDS011;9958;33.196;-97.114;2022-09-09T10:33:30;6.22;;;4.22;;
19621;SDS011;9958;33.196;-97.114;2022-09-09T10:36:07;6.55;;;4.30;;
19621;SDS011;9958;33.196;-97.114;2022-09-09T10:38:39;7.93;;;4.60;;
19621;SDS011;9958;33.196;-97.114;2022-09-09T10:41:15;4.53;;;4.07;;
19621;SDS011;9958;33.196;-97.114;2022-09-09T10:44:00;4.70;;;4.22;;
19621;SDS011;9958;33.196;-97.114;2022-09-09T10:47:01;7.07;;;4.38;;
19621;SDS011;9958;33.196;-97.114;2022-09-09T10:49:55;7.45;;;3.75;;
19621;SDS011;9958;33.196;-97.114;2022-09-09T10:52:42;5.80;;;4.18;;
19621;SDS011;9958;33.196;-97.114;2022-09-09T10:55:18;5.15;;;4.35;;
19621;SDS011;9958;33.196;-97.114;2022-09-09T10:57:52;5.07;;;4.05;;
19621;SDS011;9958;33.196;-97.114;2022-09-09T11:00:23;8.25;;;4.15;;
19621;SDS011;9958;33.196;-97.114;2022-09-09T11:02:55;5.68;;;4.05;;
19621;SDS011;9958;33.196;-97.114;2022-09-09T11:05:27;4.60;;;4.15;;
19621;SDS011;9958;33.196;-97.114;2022-09-09T11:07:59;4.40;;;3.95;;
19621;SDS011;9958;33.196;-97.114;2022-09-09T11:10:34;4.95;;;4.00;;
19621;SDS011;9958;33.196;-97.114;2022-09-09T11:13:09;5.03;;;4.40;;
19621;SDS011;9958;33.196;-97.114;2022-09-09T11:15:43;4.50;;;4.10;;
19621;SDS011;9958;33.196;-97.114;2022-09-09T11:18:15;4.30;;;3.78;;
19621;SDS011;9958;33.196;-97.114;2022-09-09T11:20:49;4.85;;;3.95;;
19621;SDS011;9958;33.196;-97.114;2022-09-09T11:23:22;6.20;;;4.28;;
19621;SDS011;9958;33.196;-97.114;2022-09-09T11:25:55;5.63;;;4.60;;
19621;SDS011;9958;33.196;-97.114;2022-09-09T11:28:32;5.13;;;4.63;;
19621;SDS011;9958;33.196;-97.114;2022-09-09T11:31:21;6.60;;;4.72;;
19621;SDS011;9958;33.196;-97.114;2022-09-09T11:34:08;9.05;;;4.50;;
19621;SDS011;9958;33.196;-97.114;2022-09-09T11:37:00;6.75;;;4.53;;
19621;SDS011;9958;33.196;-97.114;2022-09-09T11:39:57;5.80;;;4.85;;
19621;SDS011;9958;33.196;-97.114;2022-09-09T11:42:49;5.22;;;4.57;;
19621;SDS011;9958;33.196;-97.114;2022-09-09T11:45:29;5.55;;;4.78;;
19621;SDS011;9958;33.196;-97.114;2022-09-09T11:47:59;4.90;;;4.40;;
19621;SDS011;9958;33.196;-97.114;2022-09-09T11:50:30;6.53;;;5.00;;
19621;SDS011;9958;33.196;-97.114;2022-09-09T11:53:14;5.47;;;4.80;;
19621;SDS011;9958;33.196;-97.114;2022-09-09T11:55:48;5.20;;;4.70;;
19621;SDS011;9958;33.196;-97.114;2022-09-09T11:58:33;4.97;;;4.47;;
19621;SDS011;9958;33.196;-97.114;2022-09-09T12:01:15;8.95;;;5.25;;
19621;SDS011;9958;33.196;-97.114;2022-09-09T12:04:11;5.63;;;4.45;;
19621;SDS011;9958;33.196;-97.114;2022-09-09T12:06:50;5.95;;;4.93;;
19621;SDS011;9958;33.196;-97.114;2022-09-09T12:09:25;7.53;;;5.32;;
19621;SDS011;9958;33.196;-97.114;2022-09-09T12:12:18;6.22;;;4.20;;
19621;SDS011;9958;33.196;-97.114;2022-09-09T12:14:57;6.45;;;4.72;;
19621;SDS011;9958;33.196;-97.114;2022-09-09T12:17:29;5.50;;;4.95;;
19621;SDS011;9958;33.196;-97.114;2022-09-09T12:20:03;6.35;;;4.80;;
19621;SDS011;9958;33.196;-97.114;2022-09-09T12:22:40;6.43;;;4.95;;
19621;SDS011;9958;33.196;-97.114;2022-09-09T12:25:23;5.32;;;4.80;;
19621;SDS011;9958;33.196;-97.114;2022-09-09T12:28:01;5.43;;;4.72;;
19621;SDS011;9958;33.196;-97.114;2022-09-09T12:30:34;7.20;;;5.15;;
19621;SDS011;9958;33.196;-97.114;2022-09-09T12:33:10;5.07;;;4.65;;
19621;SDS011;9958;33.196;-97.114;2022-09-09T12:35:40;7.05;;;4.80;;
19621;SDS011;9958;33.196;-97.114;2022-09-09T12:38:12;9.30;;;4.95;;
19621;SDS011;9958;33.196;-97.114;2022-09-09T12:40:55;5.70;;;4.55;;
19621;SDS011;9958;33.196;-97.114;2022-09-09T12:43:24;4.75;;;4.15;;
19621;SDS011;9958;33.196;-97.114;2022-09-09T12:45:54;7.25;;;4.88;;
19621;SDS011;9958;33.196;-97.114;2022-09-09T12:48:28;6.68;;;4.20;;
19621;SDS011;9958;33.196;-97.114;2022-09-09T12:50:59;5.90;;;4.22;;
19621;SDS011;9958;33.196;-97.114;2022-09-09T12:53:29;6.40;;;4.22;;
19621;SDS011;9958;33.196;-97.114;2022-09-09T12:56:03;6.90;;;3.60;;
19621;SDS011;9958;33.196;-97.114;2022-09-09T12:58:33;6.28;;;3.80;;
19621;SDS011;9958;33.196;-97.114;2022-09-09T13:01:03;5.60;;;5.03;;
19621;SDS011;9958;33.196;-97.114;2022-09-09T13:03:33;4.50;;;3.95;;
19621;SDS011;9958;33.196;-97.114;2022-09-09T13:06:13;6.60;;;4.22;;
19621;SDS011;9958;33.196;-97.114;2022-09-09T13:08:46;4.65;;;3.67;;
19621;SDS011;9958;33.196;-97.114;2022-09-09T13:11:16;4.43;;;4.00;;
19621;SDS011;9958;33.196;-97.114;2022-09-09T13:13:52;4.97;;;3.83;;
19621;SDS011;9958;33.196;-97.114;2022-09-09T13:16:22;4.90;;;4.13;;
19621;SDS011;9958;33.196;-97.114;2022-09-09T13:18:57;5.28;;;4.40;;
19621;SDS011;9958;33.196;-97.114;2022-09-09T13:21:33;6.03;;;4.10;;
19621;SDS011;9958;33.196;-97.114;2022-09-09T13:24:04;4.90;;;3.97;;
19621;SDS011;9958;33.196;-97.114;2022-09-09T13:26:37;4.75;;;4.10;;
19621;SDS011;9958;33.196;-97.114;2022-09-09T13:29:14;6.60;;;4.53;;
19621;SDS011;9958;33.196;-97.114;2022-09-09T13:31:47;4.13;;;3.72;;
19621;SDS011;9958;33.196;-97.114;2022-09-09T13:34:26;4.72;;;3.72;;
19621;SDS011;9958;33.196;-97.114;2022-09-09T13:36:57;5.75;;;3.85;;
19621;SDS011;9958;33.196;-97.114;2022-09-09T13:39:29;6.00;;;3.67;;
19621;SDS011;9958;33.196;-97.114;2022-09-09T13:41:59;4.70;;;4.20;;
19621;SDS011;9958;33.196;-97.114;2022-09-09T13:44:29;4.95;;;4.25;;
19621;SDS011;9958;33.196;-97.114;2022-09-09T13:47:00;4.90;;;4.00;;
19621;SDS011;9958;33.196;-97.114;2022-09-09T13:49:30;4.32;;;3.92;;
19621;SDS011;9958;33.196;-97.114;2022-09-09T13:52:06;4.50;;;3.72;;
19621;SDS011;9958;33.196;-97.114;2022-09-09T13:54:37;7.38;;;4.18;;
19621;SDS011;9958;33.196;-97.114;2022-09-09T13:57:12;4.03;;;3.63;;
19621;SDS011;9958;33.196;-97.114;2022-09-09T13:59:43;5.95;;;4.20;;
19621;SDS011;9958;33.196;-97.114;2022-09-09T14:02:12;4.53;;;4.10;;
19621;SDS011;9958;33.196;-97.114;2022-09-09T14:04:40;3.83;;;3.38;;
19621;SDS011;9958;33.196;-97.114;2022-09-09T14:07:09;5.53;;;3.65;;
19621;SDS011;9958;33.196;-97.114;2022-09-09T14:09:40;4.50;;;3.83;;
19621;SDS011;9958;33.196;-97.114;2022-09-09T14:12:10;5.72;;;3.88;;
19621;SDS011;9958;33.196;-97.114;2022-09-09T14:14:40;5.82;;;3.67;;
19621;SDS011;9958;33.196;-97.114;2022-09-09T14:17:09;4.35;;;3.88;;
19621;SDS011;9958;33.196;-97.114;2022-09-09T14:19:37;4.05;;;3.60;;
19621;SDS011;9958;33.196;-97.114;2022-09-09T14:22:06;6.57;;;3.55;;
19621;SDS011;9958;33.196;-97.114;2022-09-09T14:24:34;3.88;;;3.58;;
19621;SDS011;9958;33.196;-97.114;2022-09-09T14:27:02;3.72;;;3.40;;
19621;SDS011;9958;33.196;-97.114;2022-09-09T14:29:32;4.50;;;3.22;;
19621;SDS011;9958;33.196;-97.114;2022-09-09T14:32:00;4.03;;;3.63;;
19621;SDS011;9958;33.196;-97.114;2022-09-09T14:34:29;4.25;;;3.35;;
19621;SDS011;9958;33.196;-97.114;2022-09-09T14:36:57;3.47;;;3.17;;
19621;SDS011;9958;33.196;-97.114;2022-09-09T14:39:26;3.47;;;3.15;;
19621;SDS011;9958;33.196;-97.114;2022-09-09T14:41:54;4.45;;;3.40;;
19621;SDS011;9958;33.196;-97.114;2022-09-09T14:44:23;5.82;;;3.50;;
19621;SDS011;9958;33.196;-97.114;2022-09-09T14:46:53;4.68;;;3.67;;
19621;SDS011;9958;33.196;-97.114;2022-09-09T14:49:21;5.13;;;3.50;;
19621;SDS011;9958;33.196;-97.114;2022-09-09T14:51:49;4.93;;;3.75;;
19621;SDS011;9958;33.196;-97.114;2022-09-09T14:54:18;5.25;;;3.63;;
19621;SDS011;9958;33.196;-97.114;2022-09-09T14:56:48;5.50;;;3.70;;
19621;SDS011;9958;33.196;-97.114;2022-09-09T14:59:16;5.40;;;3.75;;
19621;SDS011;9958;33.196;-97.114;2022-09-09T15:01:45;4.55;;;3.70;;
19621;SDS011;9958;33.196;-97.114;2022-09-09T15:04:14;3.50;;;3.20;;
19621;SDS011;9958;33.196;-97.114;2022-09-09T15:06:43;4.05;;;3.65;;